createdAt,value
2022-08-09T06:52:52.288Z,3.65
2022-08-09T06:55:23.003Z,3.42
2022-08-09T06:58:02.955Z,3.67
2022-08-09T07:00:51.245Z,4.20
2022-08-09T07:03:26.936Z,3.92
2022-08-09T07:08:32.617Z,3.25
2022-08-09T07:10:59.632Z,3.88
2022-08-09T07:13:30.570Z,4.68
2022-08-09T07:16:43.423Z,3.50
2022-08-09T07:18:47.517Z,4.40
2022-08-09T07:21:17.016Z,3.88
2022-08-09T07:23:56.721Z,4.55
2022-08-09T07:26:26.095Z,4.95
2022-08-09T07:29:01.275Z,6.47
2022-08-09T07:31:38.610Z,4.53
2022-08-09T07:34:20.382Z,4.15
2022-08-09T07:36:49.385Z,3.63
2022-08-09T07:39:20.596Z,4.00
2022-08-09T07:42:05.094Z,4.88
2022-08-09T07:44:51.133Z,3.90
2022-08-09T07:47:29.548Z,4.18
2022-08-09T07:50:08.596Z,3.90
2022-08-09T07:52:38.031Z,3.75
2022-08-09T07:55:08.939Z,3.60
2022-08-09T07:57:37.072Z,4.47
2022-08-09T08:00:13.791Z,3.63
2022-08-09T08:02:48.079Z,4.07
2022-08-09T08:05:18.061Z,4.15
2022-08-09T08:08:43.933Z,4.18
2022-08-09T08:10:34.301Z,3.60
2022-08-09T08:13:03.922Z,3.63
2022-08-09T08:15:35.480Z,4.50
2022-08-09T08:18:04.888Z,4.18
2022-08-09T08:20:33.156Z,4.97
2022-08-09T08:23:16.120Z,3.92
2022-08-09T08:25:50.369Z,3.95
2022-08-09T08:28:25.974Z,4.28
2022-08-09T08:31:08.941Z,3.50
2022-08-09T08:33:40.805Z,3.75
2022-08-09T08:36:29.275Z,3.95
2022-08-09T08:38:58.626Z,3.75
2022-08-09T08:41:50.364Z,3.38
2022-08-09T08:44:14.969Z,3.53
2022-08-09T08:47:02.421Z,3.97
2022-08-09T08:49:38.513Z,3.83
2022-08-09T08:52:35.283Z,3.60
2022-08-09T08:55:04.015Z,3.50
2022-08-09T08:57:35.490Z,3.70
2022-08-09T09:00:13.079Z,3.55
2022-08-09T09:02:52.638Z,3.67
2022-08-09T09:05:33.359Z,3.40
2022-08-09T09:08:29.818Z,3.63
2022-08-09T09:11:02.885Z,3.00
2022-08-09T09:13:41.522Z,3.47
2022-08-09T09:16:17.281Z,4.40
2022-08-09T09:19:21.609Z,3.42
2022-08-09T09:22:07.624Z,3.30
2022-08-09T09:24:39.795Z,4.07
2022-08-09T09:28:04.274Z,3.60
2022-08-09T09:30:24.746Z,3.35
2022-08-09T09:33:15.957Z,3.50
2022-08-09T09:36:00.575Z,5.50
2022-08-09T09:38:57.423Z,3.72
2022-08-09T09:41:26.194Z,4.05
2022-08-09T09:44:10.874Z,3.75
2022-08-09T09:46:46.058Z,3.53
2022-08-09T09:49:23.576Z,3.47
2022-08-09T09:52:35.821Z,3.05
2022-08-09T09:55:31.987Z,3.50
2022-08-09T09:58:16.530Z,3.30
2022-08-09T10:00:58.726Z,3.38
2022-08-09T10:04:00.757Z,3.05
2022-08-09T10:06:42.899Z,3.22
2022-08-09T10:09:22.134Z,3.50
2022-08-09T10:12:12.954Z,3.25
2022-08-09T10:14:51.310Z,3.15
2022-08-09T10:17:50.101Z,3.33
2022-08-09T10:20:32.972Z,3.20
2022-08-09T10:23:16.923Z,3.10
2022-08-09T10:26:04.964Z,2.78
2022-08-09T10:28:34.224Z,3.20
2022-08-09T10:34:10.761Z,2.90
2022-08-09T10:36:38.518Z,3.05
2022-08-09T10:39:06.062Z,3.03
2022-08-09T10:41:43.365Z,3.05
2022-08-09T10:44:10.732Z,3.40
2022-08-09T10:46:54.282Z,3.05
2022-08-09T10:49:51.307Z,2.67
2022-08-09T10:52:26.442Z,2.88
2022-08-09T10:54:53.742Z,3.20
2022-08-09T10:57:21.524Z,3.17
2022-08-09T10:59:57.907Z,3.38
2022-08-09T11:03:07.402Z,2.63
2022-08-09T11:05:30.117Z,3.30
2022-08-09T11:08:43.728Z,3.00
2022-08-09T11:11:16.545Z,3.90
2022-08-09T11:13:50.383Z,2.90
2022-08-09T11:16:35.117Z,2.80
2022-08-09T11:19:08.021Z,3.47
2022-08-09T11:21:57.533Z,3.80
2022-08-09T11:25:09.868Z,3.30
2022-08-09T11:28:04.750Z,3.05
2022-08-09T11:30:33.605Z,3.00
2022-08-09T11:33:10.489Z,2.92
2022-08-09T11:35:49.501Z,3.00
2022-08-09T11:38:35.521Z,3.67
2022-08-09T11:41:15.935Z,3.50
2022-08-09T11:43:48.886Z,3.40
2022-08-09T11:46:26.516Z,3.60
2022-08-09T11:49:00.980Z,3.88
2022-08-09T11:53:00.582Z,3.72
2022-08-09T11:55:39.919Z,2.92
2022-08-09T11:58:13.514Z,3.85
2022-08-09T12:00:53.692Z,4.35
2022-08-09T12:03:54.896Z,4.03
2022-08-09T12:06:16.453Z,3.33
2022-08-09T12:08:53.097Z,3.15
2022-08-09T12:11:27.331Z,3.10
2022-08-09T12:14:09.719Z,3.38
2022-08-09T12:16:44.762Z,3.83
2022-08-09T12:19:14.049Z,3.88
2022-08-09T12:21:50.835Z,3.03
2022-08-09T12:24:25.178Z,3.30
2022-08-09T12:29:15.303Z,3.63
2022-08-09T12:30:01.541Z,4.28
2022-08-09T12:32:43.044Z,3.85
2022-08-09T12:35:13.165Z,3.25
2022-08-09T12:37:51.609Z,3.30
2022-08-09T12:40:21.247Z,3.03
2022-08-09T12:42:50.942Z,3.20
2022-08-09T12:45:34.787Z,3.00
2022-08-09T12:48:20.104Z,3.33
2022-08-09T12:50:57.445Z,4.80
2022-08-09T12:53:40.792Z,3.15
2022-08-09T12:56:39.241Z,3.38
2022-08-09T12:59:13.992Z,3.17
2022-08-09T13:01:48.842Z,4.07
2022-08-09T13:04:36.711Z,3.40
2022-08-09T13:07:14.377Z,3.65
2022-08-09T13:09:43.253Z,3.10
2022-08-09T13:12:12.259Z,3.30
2022-08-09T13:14:47.210Z,3.10
2022-08-09T13:17:43.863Z,3.10
2022-08-09T13:20:16.229Z,3.03
2022-08-09T13:23:06.072Z,3.38
2022-08-09T13:25:42.356Z,3.22
2022-08-09T13:28:18.996Z,3.80
2022-08-09T13:32:17.562Z,3.15
2022-08-09T13:33:58.772Z,3.17
2022-08-09T13:36:41.051Z,3.13
2022-08-09T13:41:31.116Z,3.25
2022-08-09T13:42:11.925Z,3.05
2022-08-09T13:44:42.120Z,3.17
2022-08-09T13:47:29.049Z,3.25
2022-08-09T13:50:01.297Z,3.35
2022-08-09T13:52:30.343Z,3.35
2022-08-09T13:54:58.905Z,2.88
2022-08-09T13:57:35.622Z,3.72
2022-08-09T14:00:08.190Z,3.35
2022-08-09T14:02:42.053Z,3.42
2022-08-09T14:05:10.776Z,3.70
2022-08-09T14:07:42.319Z,3.42
2022-08-09T14:10:17.280Z,3.58
2022-08-09T14:12:58.856Z,3.47
2022-08-09T14:16:06.794Z,3.10
2022-08-09T14:18:19.744Z,3.13
2022-08-09T14:20:55.135Z,3.00
2022-08-09T14:23:40.292Z,3.22
2022-08-09T14:26:10.659Z,3.40
2022-08-09T14:28:38.643Z,3.00
2022-08-09T14:31:07.611Z,3.25
2022-08-09T14:33:38.117Z,3.40
2022-08-09T14:36:19.982Z,3.20
2022-08-09T14:38:52.989Z,3.30
2022-08-09T14:41:34.478Z,3.40
2022-08-09T14:44:07.473Z,2.95
2022-08-09T14:47:04.902Z,3.13
2022-08-09T14:49:26.762Z,2.97
2022-08-09T14:51:58.799Z,4.00
2022-08-09T14:54:28.610Z,3.10
2022-08-09T14:56:58.642Z,2.85
2022-08-09T14:59:29.176Z,3.00
2022-08-09T15:01:57.655Z,3.35
2022-08-09T15:04:25.508Z,3.83
2022-08-09T15:06:52.542Z,3.28
2022-08-09T15:09:51.969Z,3.15
2022-08-09T15:12:09.811Z,4.18
2022-08-09T15:14:39.181Z,5.22
2022-08-09T15:17:09.960Z,4.53
2022-08-09T15:19:54.569Z,3.65
2022-08-09T15:22:26.183Z,3.45
2022-08-09T15:24:54.376Z,3.33
2022-08-09T15:27:21.966Z,3.13
2022-08-09T15:30:58.999Z,3.08
2022-08-09T15:32:36.255Z,3.30
2022-08-09T15:35:40.266Z,2.65
2022-08-09T15:37:56.351Z,3.45
2022-08-09T15:40:33.750Z,3.50
2022-08-09T15:43:01.747Z,3.33
2022-08-09T15:45:29.273Z,3.35
2022-08-09T15:48:06.494Z,3.40
2022-08-09T15:50:43.825Z,3.55
2022-08-09T15:53:32.631Z,3.72
2022-08-09T15:56:23.303Z,4.05
2022-08-09T15:58:46.508Z,3.25
2022-08-09T16:01:13.502Z,3.08
2022-08-09T16:03:41.552Z,3.65
2022-08-09T16:06:27.404Z,3.10
2022-08-09T16:08:56.755Z,3.60
2022-08-09T16:11:30.913Z,3.90
2022-08-09T16:14:04.708Z,3.15
2022-08-09T16:16:37.346Z,3.00
2022-08-09T16:19:09.325Z,3.30
2022-08-09T16:21:37.509Z,3.08
2022-08-09T16:24:20.123Z,2.58
2022-08-09T16:26:56.812Z,3.33
2022-08-09T16:29:37.915Z,3.00
2022-08-09T16:32:33.037Z,2.92
2022-08-09T16:34:58.158Z,3.35
2022-08-09T16:37:55.203Z,2.72
2022-08-09T16:40:20.554Z,3.28
2022-08-09T16:43:03.057Z,3.30
2022-08-09T16:45:30.563Z,3.05
2022-08-09T16:48:39.217Z,3.08
2022-08-09T16:50:59.160Z,2.60
2022-08-09T16:53:32.574Z,3.20
2022-08-09T16:56:04.826Z,3.55
2022-08-09T16:58:35.775Z,3.28
2022-08-09T17:01:04.402Z,2.70
2022-08-09T17:03:31.522Z,3.03
2022-08-09T17:06:07.399Z,4.25
2022-08-09T17:09:00.109Z,2.80
2022-08-09T17:11:37.670Z,3.45
2022-08-09T17:14:25.881Z,3.03
2022-08-09T17:17:01.536Z,2.92
2022-08-09T17:19:46.776Z,3.38
2022-08-09T17:22:24.778Z,3.30
2022-08-09T17:25:10.265Z,3.15
2022-08-09T17:27:48.953Z,3.17
2022-08-09T17:30:17.170Z,3.00
2022-08-09T17:32:46.835Z,2.58
2022-08-09T17:35:14.541Z,3.22
2022-08-09T17:38:14.295Z,3.95
2022-08-09T17:40:32.156Z,3.67
2022-08-09T17:43:11.170Z,4.10
2022-08-09T17:46:04.060Z,3.40
2022-08-09T17:48:32.254Z,4.32
2022-08-09T17:51:00.923Z,4.10
2022-08-09T17:53:42.958Z,4.00
2022-08-09T17:56:10.887Z,4.78
2022-08-09T17:58:37.906Z,3.85
2022-08-09T18:01:09.637Z,4.10
2022-08-09T18:06:14.795Z,3.25
2022-08-09T18:08:55.991Z,3.63
2022-08-09T18:11:23.949Z,2.63
2022-08-09T18:13:57.714Z,3.10
2022-08-09T18:16:30.349Z,3.38
2022-08-09T18:19:04.247Z,3.00
2022-08-09T18:21:46.378Z,2.90
2022-08-09T18:24:17.034Z,2.85
2022-08-09T18:26:46.432Z,3.30
2022-08-09T18:30:39.092Z,3.15
2022-08-09T18:32:05.495Z,2.80
2022-08-09T18:34:35.347Z,2.72
2022-08-09T18:37:48.542Z,2.97
2022-08-09T18:39:58.427Z,2.88
2022-08-09T18:42:29.227Z,2.17
2022-08-09T18:44:57.045Z,2.10
2022-08-09T18:47:27.611Z,2.28
2022-08-09T18:49:59.936Z,2.13
2022-08-09T18:52:34.845Z,1.42
2022-08-09T18:55:03.003Z,1.58
2022-08-09T18:57:42.749Z,1.80
2022-08-09T19:00:19.884Z,1.67
2022-08-09T19:02:51.325Z,1.80
2022-08-09T19:05:28.804Z,1.40
2022-08-09T19:08:10.601Z,1.55
2022-08-09T19:10:41.259Z,1.33
2022-08-09T19:13:22.585Z,1.70
2022-08-09T19:15:58.884Z,2.03
2022-08-09T19:18:33.352Z,1.52
2022-08-09T19:21:09.330Z,1.27
2022-08-09T19:24:37.354Z,1.48
2022-08-09T19:26:29.513Z,1.55
2022-08-09T19:29:02.438Z,1.83
2022-08-09T19:31:45.325Z,1.60
2022-08-09T19:34:22.193Z,1.85
2022-08-09T19:36:52.620Z,1.20
2022-08-09T19:39:42.835Z,1.52
2022-08-09T19:42:08.765Z,1.20
